sensor_id;sensor_type;location;lat;lon;timestamp;pressure;altitude;pressure_sealevel;temperature;humidity
59274;BME280;45044;41.572;24.730;2024-02-21T00:01:22;91828.69;;;-1.42;100.00
59274;BME280;45044;41.572;24.730;2024-02-21T00:03:49;91825.78;;;-1.54;100.00
59274;BME280;45044;41.572;24.730;2024-02-21T00:06:16;91836.69;;;-1.58;100.00
59274;BME280;45044;41.572;24.730;2024-02-21T00:08:43;91829.81;;;-1.48;100.00
59274;BME280;45044;41.572;24.730;2024-02-21T00:11:10;91837.94;;;-1.55;100.00
59274;BME280;45044;41.572;24.730;2024-02-21T00:13:38;91837.38;;;-1.52;100.00
59274;BME280;45044;41.572;24.730;2024-02-21T00:16:05;91827.34;;;-1.53;100.00
59274;BME280;45044;41.572;24.730;2024-02-21T00:18:32;91838.22;;;-1.57;100.00
59274;BME280;45044;41.572;24.730;2024-02-21T00:21:00;91834.00;;;-1.66;100.00
59274;BME280;45044;41.572;24.730;2024-02-21T00:23:28;91836.69;;;-1.58;100.00
59274;BME280;45044;41.572;24.730;2024-02-21T00:25:55;91839.84;;;-1.61;100.00
59274;BME280;45044;41.572;24.730;2024-02-21T00:28:22;91838.22;;;-1.57;100.00
59274;BME280;45044;41.572;24.730;2024-02-21T00:30:48;91839.25;;;-1.58;100.00
59274;BME280;45044;41.572;24.730;2024-02-21T00:33:17;91841.41;;;-1.46;100.00
59274;BME280;45044;41.572;24.730;2024-02-21T00:35:44;91836.09;;;-1.54;100.00
59274;BME280;45044;41.572;24.730;2024-02-21T00:38:11;91849.94;;;-1.64;100.00
59274;BME280;45044;41.572;24.730;2024-02-21T00:40:37;91849.25;;;-1.70;100.00
59274;BME280;45044;41.572;24.730;2024-02-21T00:43:04;91838.94;;;-1.70;100.00
59274;BME280;45044;41.572;24.730;2024-02-21T00:45:31;91835.53;;;-1.65;100.00
59274;BME280;45044;41.572;24.730;2024-02-21T00:47:58;91834.69;;;-1.61;100.00
59274;BME280;45044;41.572;24.730;2024-02-21T00:50:25;91831.44;;;-1.52;100.00
59274;BME280;45044;41.572;24.730;2024-02-21T00:52:52;91838.44;;;-1.39;100.00
59274;BME280;45044;41.572;24.730;2024-02-21T00:55:18;91825.72;;;-1.21;100.00
59274;BME280;45044;41.572;24.730;2024-02-21T00:57:45;91790.19;;;-1.38;100.00
59274;BME280;45044;41.572;24.730;2024-02-21T01:00:12;91819.81;;;-1.36;100.00
59274;BME280;45044;41.572;24.730;2024-02-21T01:02:39;91829.44;;;-1.41;100.00
59274;BME280;45044;41.572;24.730;2024-02-21T01:05:06;91826.66;;;-1.59;100.00
59274;BME280;45044;41.572;24.730;2024-02-21T01:07:33;91828.09;;;-1.53;100.00
59274;BME280;45044;41.572;24.730;2024-02-21T01:10:00;91814.84;;;-1.46;100.00
59274;BME280;45044;41.572;24.730;2024-02-21T01:12:27;91817.41;;;-1.32;100.00
59274;BME280;45044;41.572;24.730;2024-02-21T01:14:54;91816.84;;;-1.15;100.00
59274;BME280;45044;41.572;24.730;2024-02-21T01:17:20;91817.63;;;-1.00;100.00
59274;BME280;45044;41.572;24.730;2024-02-21T01:19:50;91805.16;;;-0.84;100.00
59274;BME280;45044;41.572;24.730;2024-02-21T01:22:16;91798.75;;;-0.87;100.00
59274;BME280;45044;41.572;24.730;2024-02-21T01:24:44;91798.16;;;-0.83;100.00
59274;BME280;45044;41.572;24.730;2024-02-21T01:27:12;91795.81;;;-1.08;100.00
59274;BME280;45044;41.572;24.730;2024-02-21T01:29:39;91791.25;;;-1.11;100.00
59274;BME280;45044;41.572;24.730;2024-02-21T01:32:05;91796.19;;;-1.01;100.00
59274;BME280;45044;41.572;24.730;2024-02-21T01:34:32;91792.72;;;-0.96;100.00
59274;BME280;45044;41.572;24.730;2024-02-21T01:36:59;91793.53;;;-1.38;100.00
59274;BME280;45044;41.572;24.730;2024-02-21T01:39:30;91790.38;;;-1.35;100.00
59274;BME280;45044;41.572;24.730;2024-02-21T01:41:57;91795.91;;;-1.55;100.00
59274;BME280;45044;41.572;24.730;2024-02-21T01:44:25;91799.34;;;-1.60;100.00
59274;BME280;45044;41.572;24.730;2024-02-21T01:46:52;91794.19;;;-1.46;100.00
59274;BME280;45044;41.572;24.730;2024-02-21T01:49:20;91803.09;;;-1.38;100.00
59274;BME280;45044;41.572;24.730;2024-02-21T01:51:47;91801.53;;;-1.25;100.00
59274;BME280;45044;41.572;24.730;2024-02-21T01:54:16;91790.88;;;-1.18;100.00
59274;BME280;45044;41.572;24.730;2024-02-21T01:56:44;91792.56;;;-1.14;100.00
59274;BME280;45044;41.572;24.730;2024-02-21T01:59:15;91780.91;;;-1.39;100.00
59274;BME280;45044;41.572;24.730;2024-02-21T02:01:43;91787.03;;;-1.49;100.00
59274;BME280;45044;41.572;24.730;2024-02-21T02:04:11;91791.53;;;-1.13;100.00
59274;BME280;45044;41.572;24.730;2024-02-21T02:06:38;91787.41;;;-1.14;100.00
59274;BME280;45044;41.572;24.730;2024-02-21T02:09:04;91780.63;;;-1.10;100.00
59274;BME280;45044;41.572;24.730;2024-02-21T02:11:31;91786.38;;;-1.13;100.00
59274;BME280;45044;41.572;24.730;2024-02-21T02:13:58;91782.25;;;-1.28;100.00
59274;BME280;45044;41.572;24.730;2024-02-21T02:16:25;91775.56;;;-1.43;100.00
59274;BME280;45044;41.572;24.730;2024-02-21T02:18:52;91773.25;;;-1.30;100.00
59274;BME280;45044;41.572;24.730;2024-02-21T02:21:34;91774.59;;;-1.47;100.00
59274;BME280;45044;41.572;24.730;2024-02-21T02:24:06;91768.69;;;-1.34;100.00
59274;BME280;45044;41.572;24.730;2024-02-21T02:26:38;91750.72;;;-1.39;100.00
59274;BME280;45044;41.572;24.730;2024-02-21T02:29:09;91760.25;;;-1.25;100.00
59274;BME280;45044;41.572;24.730;2024-02-21T02:31:53;91766.97;;;-1.24;100.00
59274;BME280;45044;41.572;24.730;2024-02-21T02:34:37;91766.25;;;-0.88;100.00
59274;BME280;45044;41.572;24.730;2024-02-21T02:37:06;91765.09;;;-0.81;100.00
59274;BME280;45044;41.572;24.730;2024-02-21T02:39:33;91766.63;;;-0.80;100.00
59274;BME280;45044;41.572;24.730;2024-02-21T02:41:59;91769.22;;;-0.80;100.00
59274;BME280;45044;41.572;24.730;2024-02-21T02:44:26;91769.25;;;-1.09;100.00
59274;BME280;45044;41.572;24.730;2024-02-21T02:46:53;91771.25;;;-1.19;100.00
59274;BME280;45044;41.572;24.730;2024-02-21T02:49:20;91765.31;;;-1.06;100.00
59274;BME280;45044;41.572;24.730;2024-02-21T02:51:47;91764.81;;;-0.94;100.00
59274;BME280;45044;41.572;24.730;2024-02-21T02:54:14;91761.28;;;-0.84;100.00
59274;BME280;45044;41.572;24.730;2024-02-21T02:56:40;91760.75;;;-0.72;100.00
59274;BME280;45044;41.572;24.730;2024-02-21T02:59:07;91762.56;;;-0.73;100.00
59274;BME280;45044;41.572;24.730;2024-02-21T03:01:34;91751.91;;;-0.94;100.00
59274;BME280;45044;41.572;24.730;2024-02-21T03:04:02;91765.88;;;-0.95;100.00
59274;BME280;45044;41.572;24.730;2024-02-21T03:06:29;91768.47;;;-0.95;100.00
59274;BME280;45044;41.572;24.730;2024-02-21T03:08:57;91768.00;;;-0.97;100.00
59274;BME280;45044;41.572;24.730;2024-02-21T03:11:23;91771.56;;;-1.35;100.00
59274;BME280;45044;41.572;24.730;2024-02-21T03:13:56;91766.94;;;-1.10;100.00
59274;BME280;45044;41.572;24.730;2024-02-21T03:16:23;91772.09;;;-0.96;100.00
59274;BME280;45044;41.572;24.730;2024-02-21T03:18:50;91774.19;;;-0.84;100.00
59274;BME280;45044;41.572;24.730;2024-02-21T03:21:17;91775.41;;;-0.67;100.00
59274;BME280;45044;41.572;24.730;2024-02-21T03:23:44;91775.94;;;-0.56;100.00
59274;BME280;45044;41.572;24.730;2024-02-21T03:26:10;91777.94;;;-0.53;100.00
59274;BME280;45044;41.572;24.730;2024-02-21T03:28:37;91780.31;;;-0.94;100.00
59274;BME280;45044;41.572;24.730;2024-02-21T03:31:06;91778.53;;;-1.07;100.00
59274;BME280;45044;41.572;24.730;2024-02-21T03:33:33;91778.97;;;-0.91;100.00
59274;BME280;45044;41.572;24.730;2024-02-21T03:36:00;91784.31;;;-0.88;100.00
59274;BME280;45044;41.572;24.730;2024-02-21T03:38:27;91788.78;;;-0.79;100.00
59274;BME280;45044;41.572;24.730;2024-02-21T03:40:53;91789.09;;;-0.81;100.00
59274;BME280;45044;41.572;24.730;2024-02-21T03:43:20;91774.66;;;-0.82;100.00
59274;BME280;45044;41.572;24.730;2024-02-21T03:45:47;91779.03;;;-0.68;100.00
59274;BME280;45044;41.572;24.730;2024-02-21T03:48:13;91781.19;;;-0.62;100.00
59274;BME280;45044;41.572;24.730;2024-02-21T03:50:40;91776.91;;;-0.66;100.00
59274;BME280;45044;41.572;24.730;2024-02-21T03:53:07;91780.63;;;-0.58;100.00
59274;BME280;45044;41.572;24.730;2024-02-21T03:55:34;91777.31;;;-0.73;100.00
59274;BME280;45044;41.572;24.730;2024-02-21T03:58:00;91775.59;;;-0.64;100.00
59274;BME280;45044;41.572;24.730;2024-02-21T04:00:27;91773.34;;;-0.56;100.00
59274;BME280;45044;41.572;24.730;2024-02-21T04:02:54;91767.50;;;-0.48;100.00
59274;BME280;45044;41.572;24.730;2024-02-21T04:05:22;91769.47;;;-0.45;100.00
59274;BME280;45044;41.572;24.730;2024-02-21T04:07:49;91762.38;;;-0.39;100.00
59274;BME280;45044;41.572;24.730;2024-02-21T04:10:16;91764.25;;;-0.54;100.00
59274;BME280;45044;41.572;24.730;2024-02-21T04:12:43;91762.56;;;-0.35;100.00
59274;BME280;45044;41.572;24.730;2024-02-21T04:15:09;91774.22;;;-0.38;100.00
59274;BME280;45044;41.572;24.730;2024-02-21T04:17:36;91765.63;;;-0.33;100.00
59274;BME280;45044;41.572;24.730;2024-02-21T04:20:04;91762.09;;;-0.38;100.00
59274;BME280;45044;41.572;24.730;2024-02-21T04:22:37;91772.78;;;-0.30;100.00
59274;BME280;45044;41.572;24.730;2024-02-21T04:25:04;91769.03;;;-0.24;100.00
59274;BME280;45044;41.572;24.730;2024-02-21T04:27:31;91773.38;;;-0.33;100.00
59274;BME280;45044;41.572;24.730;2024-02-21T04:30:00;91781.72;;;-0.37;100.00
59274;BME280;45044;41.572;24.730;2024-02-21T04:32:28;91776.19;;;-0.44;100.00
59274;BME280;45044;41.572;24.730;2024-02-21T04:34:56;91776.09;;;-0.53;100.00
59274;BME280;45044;41.572;24.730;2024-02-21T04:37:23;91753.63;;;-0.52;100.00
59274;BME280;45044;41.572;24.730;2024-02-21T04:39:51;91773.00;;;-0.41;100.00
59274;BME280;45044;41.572;24.730;2024-02-21T04:42:17;91769.47;;;-0.45;100.00
59274;BME280;45044;41.572;24.730;2024-02-21T04:44:45;91769.25;;;-0.34;100.00
59274;BME280;45044;41.572;24.730;2024-02-21T04:47:12;91777.00;;;-0.34;100.00
59274;BME280;45044;41.572;24.730;2024-02-21T04:49:38;91776.91;;;-0.29;100.00
59274;BME280;45044;41.572;24.730;2024-02-21T04:52:05;91780.28;;;-0.20;100.00
59274;BME280;45044;41.572;24.730;2024-02-21T04:54:32;91775.72;;;-0.23;100.00
59274;BME280;45044;41.572;24.730;2024-02-21T04:56:59;91772.66;;;-0.25;100.00
59274;BME280;45044;41.572;24.730;2024-02-21T04:59:26;91784.47;;;-0.33;100.00
59274;BME280;45044;41.572;24.730;2024-02-21T05:01:52;91783.41;;;-0.32;100.00
59274;BME280;45044;41.572;24.730;2024-02-21T05:04:19;91790.50;;;-0.38;100.00
59274;BME280;45044;41.572;24.730;2024-02-21T05:06:47;91784.56;;;-0.38;100.00
59274;BME280;45044;41.572;24.730;2024-02-21T05:09:14;91787.44;;;-0.40;100.00
59274;BME280;45044;41.572;24.730;2024-02-21T05:11:40;91784.66;;;-0.29;100.00
59274;BME280;45044;41.572;24.730;2024-02-21T05:14:07;91779.06;;;-0.22;100.00
59274;BME280;45044;41.572;24.730;2024-02-21T05:16:34;91788.00;;;-0.06;100.00
59274;BME280;45044;41.572;24.730;2024-02-21T05:19:03;91794.84;;;-0.01;100.00
59274;BME280;45044;41.572;24.730;2024-02-21T05:21:31;91796.56;;;0.04;100.00
59274;BME280;45044;41.572;24.730;2024-02-21T05:23:57;91788.41;;;0.10;100.00
59274;BME280;45044;41.572;24.730;2024-02-21T05:26:25;91796.72;;;0.07;100.00
59274;BME280;45044;41.572;24.730;2024-02-21T05:28:52;91795.34;;;0.01;100.00
59274;BME280;45044;41.572;24.730;2024-02-21T05:31:20;91782.94;;;-0.11;100.00
59274;BME280;45044;41.572;24.730;2024-02-21T05:33:47;91797.44;;;-0.01;100.00
59274;BME280;45044;41.572;24.730;2024-02-21T05:36:15;91806.31;;;-0.16;100.00
59274;BME280;45044;41.572;24.730;2024-02-21T05:38:42;91805.88;;;-0.18;100.00
59274;BME280;45044;41.572;24.730;2024-02-21T05:41:09;91807.69;;;-0.19;100.00
59274;BME280;45044;41.572;24.730;2024-02-21T05:43:38;91799.09;;;-0.28;100.00
59274;BME280;45044;41.572;24.730;2024-02-21T05:46:04;91812.25;;;-0.39;100.00
59274;BME280;45044;41.572;24.730;2024-02-21T05:48:31;91811.22;;;-0.52;100.00
59274;BME280;45044;41.572;24.730;2024-02-21T05:51:04;91811.50;;;-0.53;100.00
59274;BME280;45044;41.572;24.730;2024-02-21T05:53:31;91808.88;;;-0.39;100.00
59274;BME280;45044;41.572;24.730;2024-02-21T05:55:58;91812.53;;;-0.40;100.00
59274;BME280;45044;41.572;24.730;2024-02-21T05:58:25;91815.53;;;-0.24;100.00
59274;BME280;45044;41.572;24.730;2024-02-21T06:00:53;91811.44;;;-0.02;100.00
59274;BME280;45044;41.572;24.730;2024-02-21T06:03:20;91809.91;;;-0.03;100.00
59274;BME280;45044;41.572;24.730;2024-02-21T06:05:47;91816.81;;;-0.13;100.00
59274;BME280;45044;41.572;24.730;2024-02-21T06:08:15;91815.59;;;0.08;100.00
59274;BME280;45044;41.572;24.730;2024-02-21T06:10:42;91813.66;;;0.14;100.00
59274;BME280;45044;41.572;24.730;2024-02-21T06:13:09;91829.16;;;0.14;100.00
59274;BME280;45044;41.572;24.730;2024-02-21T06:15:36;91825.28;;;0.25;100.00
59274;BME280;45044;41.572;24.730;2024-02-21T06:18:05;91833.63;;;0.22;100.00
59274;BME280;45044;41.572;24.730;2024-02-21T06:20:32;91825.63;;;0.09;100.00
59274;BME280;45044;41.572;24.730;2024-02-21T06:23:00;91833.41;;;0.09;100.00
59274;BME280;45044;41.572;24.730;2024-02-21T06:25:26;91831.75;;;0.14;100.00
59274;BME280;45044;41.572;24.730;2024-02-21T06:27:53;91840.28;;;0.14;100.00
59274;BME280;45044;41.572;24.730;2024-02-21T06:30:20;91844.09;;;0.17;100.00
59274;BME280;45044;41.572;24.730;2024-02-21T06:32:47;91846.81;;;0.34;100.00
59274;BME280;45044;41.572;24.730;2024-02-21T06:35:14;91845.34;;;0.51;100.00
59274;BME280;45044;41.572;24.730;2024-02-21T06:37:40;91832.94;;;0.62;100.00
59274;BME280;45044;41.572;24.730;2024-02-21T06:40:08;91843.41;;;0.89;100.00
59274;BME280;45044;41.572;24.730;2024-02-21T06:42:35;91848.28;;;0.90;100.00
59274;BME280;45044;41.572;24.730;2024-02-21T06:45:01;91843.44;;;0.98;100.00
59274;BME280;45044;41.572;24.730;2024-02-21T06:47:28;91844.09;;;1.21;100.00
59274;BME280;45044;41.572;24.730;2024-02-21T06:49:55;91843.50;;;1.24;100.00
59274;BME280;45044;41.572;24.730;2024-02-21T06:52:21;91846.69;;;1.21;100.00
59274;BME280;45044;41.572;24.730;2024-02-21T06:54:51;91842.38;;;1.07;100.00
59274;BME280;45044;41.572;24.730;2024-02-21T06:57:20;91856.72;;;1.14;100.00
59274;BME280;45044;41.572;24.730;2024-02-21T06:59:46;91856.41;;;1.06;100.00
59274;BME280;45044;41.572;24.730;2024-02-21T07:02:13;91855.81;;;1.10;100.00
59274;BME280;45044;41.572;24.730;2024-02-21T07:04:40;91853.69;;;1.12;100.00
59274;BME280;45044;41.572;24.730;2024-02-21T07:07:07;91854.41;;;1.03;100.00
59274;BME280;45044;41.572;24.730;2024-02-21T07:09:34;91850.84;;;0.81;100.00
59274;BME280;45044;41.572;24.730;2024-02-21T07:12:01;91859.13;;;1.01;100.00
59274;BME280;45044;41.572;24.730;2024-02-21T07:14:28;91856.41;;;1.06;100.00
59274;BME280;45044;41.572;24.730;2024-02-21T07:16:55;91863.88;;;1.08;100.00
59274;BME280;45044;41.572;24.730;2024-02-21T07:19:23;91863.91;;;1.17;100.00
59274;BME280;45044;41.572;24.730;2024-02-21T07:21:50;91861.78;;;1.28;100.00
59274;BME280;45044;41.572;24.730;2024-02-21T07:24:17;91869.97;;;1.03;100.00
59274;BME280;45044;41.572;24.730;2024-02-21T07:26:46;91867.03;;;0.96;100.00
59274;BME280;45044;41.572;24.730;2024-02-21T07:29:13;91870.44;;;1.05;100.00
59274;BME280;45044;41.572;24.730;2024-02-21T07:31:41;91871.06;;;1.20;100.00
59274;BME280;45044;41.572;24.730;2024-02-21T07:34:08;91868.06;;;1.27;100.00
59274;BME280;45044;41.572;24.730;2024-02-21T07:36:35;91867.75;;;1.28;100.00
59274;BME280;45044;41.572;24.730;2024-02-21T07:39:05;91862.53;;;1.19;100.00
59274;BME280;45044;41.572;24.730;2024-02-21T07:41:32;91869.59;;;1.37;100.00
59274;BME280;45044;41.572;24.730;2024-02-21T07:44:00;91872.41;;;1.58;100.00
59274;BME280;45044;41.572;24.730;2024-02-21T07:46:28;91878.94;;;1.64;100.00
59274;BME280;45044;41.572;24.730;2024-02-21T07:48:55;91872.72;;;1.92;100.00
59274;BME280;45044;41.572;24.730;2024-02-21T07:51:22;91879.59;;;2.23;100.00
59274;BME280;45044;41.572;24.730;2024-02-21T07:53:48;91868.59;;;2.18;100.00
59274;BME280;45044;41.572;24.730;2024-02-21T07:56:15;91876.06;;;2.37;100.00
59274;BME280;45044;41.572;24.730;2024-02-21T07:58:42;91874.59;;;2.84;100.00
59274;BME280;45044;41.572;24.730;2024-02-21T08:01:10;91881.72;;;3.35;100.00
59274;BME280;45044;41.572;24.730;2024-02-21T08:03:37;91880.56;;;3.54;100.00
59274;BME280;45044;41.572;24.730;2024-02-21T08:06:04;91884.81;;;4.10;100.00
59274;BME280;45044;41.572;24.730;2024-02-21T08:08:31;91880.19;;;4.50;100.00
59274;BME280;45044;41.572;24.730;2024-02-21T08:10:58;91880.97;;;5.22;100.00
59274;BME280;45044;41.572;24.730;2024-02-21T08:13:25;91884.03;;;5.36;100.00
59274;BME280;45044;41.572;24.730;2024-02-21T08:15:52;91884.72;;;4.74;100.00
59274;BME280;45044;41.572;24.730;2024-02-21T08:18:19;91880.91;;;4.72;100.00
59274;BME280;45044;41.572;24.730;2024-02-21T08:20:46;91880.13;;;5.68;100.00
59274;BME280;45044;41.572;24.730;2024-02-21T08:23:12;91873.78;;;6.64;100.00
59274;BME280;45044;41.572;24.730;2024-02-21T08:25:39;91875.97;;;6.62;100.00
59274;BME280;45044;41.572;24.730;2024-02-21T08:28:06;91873.91;;;7.00;100.00
59274;BME280;45044;41.572;24.730;2024-02-21T08:30:34;91869.72;;;7.27;100.00
59274;BME280;45044;41.572;24.730;2024-02-21T08:33:01;91882.75;;;6.79;100.00
59274;BME280;45044;41.572;24.730;2024-02-21T08:35:37;91888.84;;;6.83;100.00
59274;BME280;45044;41.572;24.730;2024-02-21T08:38:04;91881.59;;;6.47;100.00
59274;BME280;45044;41.572;24.730;2024-02-21T08:40:34;91881.44;;;6.85;100.00
59274;BME280;45044;41.572;24.730;2024-02-21T08:43:11;91881.75;;;6.83;100.00
59274;BME280;45044;41.572;24.730;2024-02-21T08:45:38;91885.25;;;6.30;100.00
59274;BME280;45044;41.572;24.730;2024-02-21T08:48:05;91877.28;;;5.73;100.00
59274;BME280;45044;41.572;24.730;2024-02-21T08:50:32;91883.50;;;5.56;100.00
59274;BME280;45044;41.572;24.730;2024-02-21T08:53:00;91881.75;;;5.47;100.00
59274;BME280;45044;41.572;24.730;2024-02-21T08:55:28;91886.75;;;5.65;100.00
59274;BME280;45044;41.572;24.730;2024-02-21T08:57:56;91878.47;;;5.88;100.00
59274;BME280;45044;41.572;24.730;2024-02-21T09:00:23;91876.38;;;5.94;100.00
59274;BME280;45044;41.572;24.730;2024-02-21T09:02:54;91881.00;;;5.72;100.00
59274;BME280;45044;41.572;24.730;2024-02-21T09:05:22;91884.22;;;6.06;100.00
59274;BME280;45044;41.572;24.730;2024-02-21T09:07:51;91886.16;;;6.09;100.00
59274;BME280;45044;41.572;24.730;2024-02-21T09:10:17;91877.78;;;6.74;100.00
59274;BME280;45044;41.572;24.730;2024-02-21T09:12:44;91881.25;;;6.94;100.00
59274;BME280;45044;41.572;24.730;2024-02-21T09:15:11;91878.75;;;6.69;100.00
59274;BME280;45044;41.572;24.730;2024-02-21T09:17:38;91872.88;;;6.72;100.00
59274;BME280;45044;41.572;24.730;2024-02-21T09:20:06;91875.00;;;6.82;100.00
59274;BME280;45044;41.572;24.730;2024-02-21T09:22:34;91876.03;;;6.78;100.00
59274;BME280;45044;41.572;24.730;2024-02-21T09:25:02;91864.88;;;6.65;100.00
59274;BME280;45044;41.572;24.730;2024-02-21T09:27:30;91865.81;;;6.44;100.00
59274;BME280;45044;41.572;24.730;2024-02-21T09:29:57;91874.19;;;7.11;100.00
59274;BME280;45044;41.572;24.730;2024-02-21T09:32:24;91877.53;;;7.76;100.00
59274;BME280;45044;41.572;24.730;2024-02-21T09:34:50;91877.63;;;7.99;100.00
59274;BME280;45044;41.572;24.730;2024-02-21T09:37:17;91878.13;;;10.09;100.00
59274;BME280;45044;41.572;24.730;2024-02-21T09:39:45;91880.88;;;12.36;100.00
59274;BME280;45044;41.572;24.730;2024-02-21T09:42:14;91884.16;;;13.37;69.59
59274;BME280;45044;41.572;24.730;2024-02-21T09:44:45;91878.84;;;13.26;75.94
59274;BME280;45044;41.572;24.730;2024-02-21T09:47:31;91880.34;;;13.34;69.09
59274;BME280;45044;41.572;24.730;2024-02-21T09:50:04;91869.94;;;11.67;82.02
59274;BME280;45044;41.572;24.730;2024-02-21T09:52:32;91880.56;;;12.52;72.04
59274;BME280;45044;41.572;24.730;2024-02-21T09:55:02;91868.13;;;14.57;66.98
59274;BME280;45044;41.572;24.730;2024-02-21T09:57:31;91872.75;;;14.28;60.98
59274;BME280;45044;41.572;24.730;2024-02-21T10:00:00;91865.22;;;14.22;69.97
59274;BME280;45044;41.572;24.730;2024-02-21T10:02:34;91863.06;;;13.59;63.08
59274;BME280;45044;41.572;24.730;2024-02-21T10:05:02;91865.66;;;13.44;65.03
59274;BME280;45044;41.572;24.730;2024-02-21T10:07:31;91864.53;;;13.67;66.63
59274;BME280;45044;41.572;24.730;2024-02-21T10:10:03;91866.81;;;13.28;62.63
59274;BME280;45044;41.572;24.730;2024-02-21T10:12:29;91864.50;;;13.16;58.96
59274;BME280;45044;41.572;24.730;2024-02-21T10:15:04;91856.97;;;13.25;59.69
59274;BME280;45044;41.572;24.730;2024-02-21T10:17:35;91861.44;;;12.81;63.37
59274;BME280;45044;41.572;24.730;2024-02-21T10:20:09;91849.91;;;12.18;61.54
59274;BME280;45044;41.572;24.730;2024-02-21T10:22:38;91855.81;;;11.97;60.67
59274;BME280;45044;41.572;24.730;2024-02-21T10:25:10;91849.91;;;11.58;66.07
59274;BME280;45044;41.572;24.730;2024-02-21T10:27:37;91846.34;;;11.32;73.14
59274;BME280;45044;41.572;24.730;2024-02-21T10:30:08;91844.44;;;10.84;77.76
59274;BME280;45044;41.572;24.730;2024-02-21T10:32:55;91836.41;;;10.04;79.47
59274;BME280;45044;41.572;24.730;2024-02-21T10:35:26;91835.00;;;9.05;90.36
59274;BME280;45044;41.572;24.730;2024-02-21T10:37:56;91824.41;;;10.03;78.61
59274;BME280;45044;41.572;24.730;2024-02-21T10:40:27;91829.81;;;10.17;73.67
59274;BME280;45044;41.572;24.730;2024-02-21T10:42:57;91819.63;;;9.04;80.54
59274;BME280;45044;41.572;24.730;2024-02-21T10:45:30;91827.75;;;9.45;76.26
59274;BME280;45044;41.572;24.730;2024-02-21T10:48:29;91813.47;;;9.43;79.08
59274;BME280;45044;41.572;24.730;2024-02-21T10:53:38;91816.78;;;8.26;100.00
59274;BME280;45044;41.572;24.730;2024-02-21T10:58:54;91804.91;;;8.95;100.00
59274;BME280;45044;41.572;24.730;2024-02-21T11:01:31;91801.81;;;8.46;100.00
59274;BME280;45044;41.572;24.730;2024-02-21T11:04:01;91802.38;;;8.16;100.00
59274;BME280;45044;41.572;24.730;2024-02-21T11:06:29;91792.38;;;8.85;100.00
59274;BME280;45044;41.572;24.730;2024-02-21T11:09:14;91794.22;;;9.08;100.00
59274;BME280;45044;41.572;24.730;2024-02-21T11:11:43;91790.19;;;8.91;100.00
59274;BME280;45044;41.572;24.730;2024-02-21T11:14:21;91789.00;;;8.61;100.00
59274;BME280;45044;41.572;24.730;2024-02-21T11:16:47;91787.19;;;8.89;100.00
59274;BME280;45044;41.572;24.730;2024-02-21T11:19:22;91782.16;;;8.80;99.43
59274;BME280;45044;41.572;24.730;2024-02-21T11:21:55;91779.59;;;8.60;100.00
59274;BME280;45044;41.572;24.730;2024-02-21T11:24:29;91781.28;;;7.89;94.54
59274;BME280;45044;41.572;24.730;2024-02-21T11:27:16;91763.63;;;8.25;84.61
59274;BME280;45044;41.572;24.730;2024-02-21T11:29:48;91765.84;;;8.43;84.59
59274;BME280;45044;41.572;24.730;2024-02-21T11:32:19;91776.69;;;8.65;78.96
59274;BME280;45044;41.572;24.730;2024-02-21T11:35:00;91771.56;;;9.46;76.01
59274;BME280;45044;41.572;24.730;2024-02-21T11:37:35;91767.50;;;9.26;71.99
59274;BME280;45044;41.572;24.730;2024-02-21T11:40:06;91765.16;;;8.93;75.17
59274;BME280;45044;41.572;24.730;2024-02-21T11:42:38;91770.41;;;8.70;78.22
59274;BME280;45044;41.572;24.730;2024-02-21T11:45:06;91757.41;;;9.01;86.91
59274;BME280;45044;41.572;24.730;2024-02-21T11:47:33;91765.06;;;9.13;86.08
59274;BME280;45044;41.572;24.730;2024-02-21T11:50:00;91761.94;;;9.31;76.67
59274;BME280;45044;41.572;24.730;2024-02-21T11:52:28;91762.75;;;9.08;74.77
59274;BME280;45044;41.572;24.730;2024-02-21T11:54:55;91758.34;;;8.65;78.53
59274;BME280;45044;41.572;24.730;2024-02-21T11:57:24;91758.47;;;8.29;76.79
59274;BME280;45044;41.572;24.730;2024-02-21T11:59:51;91753.88;;;8.02;89.70
59274;BME280;45044;41.572;24.730;2024-02-21T12:02:26;91762.69;;;7.74;97.04
59274;BME280;45044;41.572;24.730;2024-02-21T12:04:53;91761.44;;;7.48;100.00
59274;BME280;45044;41.572;24.730;2024-02-21T12:07:21;91753.03;;;7.39;100.00
59274;BME280;45044;41.572;24.730;2024-02-21T12:09:51;91752.00;;;7.63;100.00
59274;BME280;45044;41.572;24.730;2024-02-21T12:12:20;91753.59;;;7.68;100.00
59274;BME280;45044;41.572;24.730;2024-02-21T12:14:56;91755.72;;;7.62;100.00
59274;BME280;45044;41.572;24.730;2024-02-21T12:17:26;91750.56;;;7.86;100.00
59274;BME280;45044;41.572;24.730;2024-02-21T12:19:56;91751.41;;;7.90;100.00
59274;BME280;45044;41.572;24.730;2024-02-21T12:22:25;91753.31;;;7.53;100.00
59274;BME280;45044;41.572;24.730;2024-02-21T12:24:52;91747.53;;;7.44;100.00
59274;BME280;45044;41.572;24.730;2024-02-21T12:27:18;91751.63;;;7.09;100.00
59274;BME280;45044;41.572;24.730;2024-02-21T12:29:45;91753.25;;;7.14;100.00
59274;BME280;45044;41.572;24.730;2024-02-21T12:32:13;91749.72;;;6.90;100.00
59274;BME280;45044;41.572;24.730;2024-02-21T12:34:40;91752.59;;;6.85;100.00
59274;BME280;45044;41.572;24.730;2024-02-21T12:37:22;91752.41;;;7.10;100.00
59274;BME280;45044;41.572;24.730;2024-02-21T12:39:49;91758.75;;;6.92;100.00
59274;BME280;45044;41.572;24.730;2024-02-21T12:42:15;91753.69;;;6.83;100.00
59274;BME280;45044;41.572;24.730;2024-02-21T12:44:44;91746.53;;;6.80;100.00
59274;BME280;45044;41.572;24.730;2024-02-21T12:47:11;91746.78;;;6.91;100.00
59274;BME280;45044;41.572;24.730;2024-02-21T12:49:38;91743.66;;;6.86;100.00
59274;BME280;45044;41.572;24.730;2024-02-21T12:52:11;91741.63;;;6.79;100.00
59274;BME280;45044;41.572;24.730;2024-02-21T12:54:38;91741.72;;;6.66;100.00
59274;BME280;45044;41.572;24.730;2024-02-21T12:57:05;91742.75;;;6.78;100.00